This is the latest recevied weather packets stored in our database for station/object WD7OO. If no packets are shown the sender has not sent any weather packets the latest 10 day(s).
| Time | Temp. | Humidity | Pressure | Rain* | Wind** | Luminosity | Snow |
|---|---|---|---|---|---|---|---|
| 1777733514 | 7.78° C | 57% | 1020.2 hPa | 0 mm | - | 965 W/m² | - |
| 1777733210 | 7.78° C | 57% | 1020.2 hPa | 0 mm | - | 846 W/m² | - |
| 1777732907 | 7.22° C | 60% | 1020.1 hPa | 0 mm | - | 766 W/m² | - |
| 1777732603 | 6.67° C | 63% | 1020 hPa | 0 mm | - | 760 W/m² | - |
| 1777732301 | 6.67° C | 66% | 1019.9 hPa | 0 mm | - | 662 W/m² | - |
| 1777731998 | 6.67° C | 64% | 1020.1 hPa | 0 mm | - | 140 W/m² | - |
| 1777731694 | 6.67° C | 64% | 1019.9 hPa | 0 mm | - | 727 W/m² | - |
| 1777731392 | 6.67° C | 67% | 1020.2 hPa | 0 mm | - | 668 W/m² | - |
| 1777731090 | 6.67° C | 69% | 1020.1 hPa | 0 mm | - | 181 W/m² | - |
| 1777730788 | 6.11° C | 69% | 1020.1 hPa | 0 mm | - | 266 W/m² | - |
| 1777730484 | 6.67° C | 66% | 1020.2 hPa | 0 mm | - | 129 W/m² | - |
| 1777730180 | 6.67° C | 67% | 1020 hPa | 0 mm | - | 626 W/m² | - |
| 1777729877 | 6.11° C | 73% | 1019.9 hPa | 0 mm | - | 582 W/m² | - |
| 1777729574 | 6.11° C | 71% | 1020.1 hPa | 0 mm | - | 157 W/m² | - |
| 1777729270 | 6.11° C | 73% | 1020 hPa | 0 mm | - | 468 W/m² | - |
| 1777728967 | 5.56° C | 75% | 1020 hPa | 0 mm | - | 418 W/m² | - |
| 1777728664 | 5.56° C | 73% | 1020.2 hPa | 0 mm | - | 377 W/m² | - |
| 1777728361 | 5.56° C | 74% | 1020.1 hPa | 0 mm | - | 352 W/m² | - |
| 1777728058 | 5.56° C | 75% | 1019.9 hPa | 0 mm | - | 368 W/m² | - |
| 1777727755 | 5° C | 78% | 1020 hPa | 0 mm | - | 346 W/m² | - |
| 1777727452 | 5° C | 77% | 1020 hPa | 0 mm | - | 288 W/m² | - |
| 1777727149 | 5° C | 78% | 1019.9 hPa | 0 mm | - | 236 W/m² | - |
| 1777726847 | 4.44° C | 81% | 1020.1 hPa | 0 mm | - | 246 W/m² | - |
| 1777726543 | 4.44° C | 83% | 1019.9 hPa | 0 mm | - | 242 W/m² | - |
| 1777726240 | 4.44° C | 84% | 1019.8 hPa | 0 mm | - | 227 W/m² | - |
* Rain latest hour (hover to see other rain measurements)
** Current wind speed in m/s (hover to see current wind gust speed)